createdAt,value
2022-12-14T00:00:08.535Z,0.00
2022-12-14T00:01:08.525Z,0.00
2022-12-14T00:02:08.571Z,0.00
2022-12-14T00:03:08.624Z,0.00
2022-12-14T00:04:09.455Z,0.00
2022-12-14T00:05:08.518Z,0.00
2022-12-14T00:06:08.487Z,0.00
2022-12-14T00:07:09.280Z,0.00
2022-12-14T00:08:08.445Z,0.00
2022-12-14T00:09:08.560Z,0.00
2022-12-14T00:10:08.449Z,0.00
2022-12-14T00:11:08.414Z,0.00
2022-12-14T00:12:08.465Z,0.00
2022-12-14T00:13:08.394Z,0.00
2022-12-14T00:14:08.391Z,0.00
2022-12-14T00:15:08.400Z,0.00
2022-12-14T00:16:08.411Z,0.00
2022-12-14T00:17:08.365Z,0.00
2022-12-14T00:18:08.374Z,0.00
2022-12-14T00:19:08.321Z,0.00
2022-12-14T00:20:08.315Z,0.00
2022-12-14T00:21:08.303Z,0.00
2022-12-14T00:22:08.305Z,0.00
2022-12-14T00:23:08.313Z,0.00
2022-12-14T00:24:08.269Z,0.00
2022-12-14T00:25:08.294Z,0.00
2022-12-14T00:26:08.268Z,0.00
2022-12-14T00:27:08.245Z,0.00
2022-12-14T00:28:08.248Z,0.00
2022-12-14T00:29:08.253Z,0.00
2022-12-14T00:30:09.011Z,0.00
2022-12-14T00:31:08.261Z,0.00
2022-12-14T00:32:08.172Z,0.00
2022-12-14T00:33:08.223Z,0.00
2022-12-14T00:34:08.164Z,0.00
2022-12-14T00:35:08.155Z,0.00
2022-12-14T00:36:08.187Z,0.00
2022-12-14T00:37:08.146Z,0.00
2022-12-14T00:38:08.139Z,0.00
2022-12-14T00:39:08.104Z,0.00
2022-12-14T00:40:08.091Z,0.00
2022-12-14T00:41:08.144Z,0.00
2022-12-14T00:42:08.132Z,0.00
2022-12-14T00:43:08.040Z,0.00
2022-12-14T00:44:08.571Z,0.00
2022-12-14T00:45:08.037Z,0.00
2022-12-14T00:46:08.140Z,0.00
2022-12-14T00:47:08.083Z,0.00
2022-12-14T00:48:08.021Z,0.00
2022-12-14T00:49:08.701Z,0.00
2022-12-14T00:50:07.991Z,0.00
2022-12-14T00:51:07.960Z,0.00
2022-12-14T00:52:09.196Z,0.00
2022-12-14T00:53:07.952Z,0.00
2022-12-14T00:54:08.004Z,0.00
2022-12-14T00:55:07.990Z,0.00
2022-12-14T00:56:07.912Z,0.00
2022-12-14T00:57:07.902Z,0.00
2022-12-14T00:58:07.902Z,0.00
2022-12-14T00:59:07.880Z,0.00
2022-12-14T01:00:07.890Z,0.00
2022-12-14T01:01:07.960Z,0.00
2022-12-14T01:02:07.914Z,0.00
2022-12-14T01:03:07.839Z,0.00
2022-12-14T01:04:07.921Z,0.00
2022-12-14T01:05:07.809Z,0.00
2022-12-14T01:06:07.798Z,0.00
2022-12-14T01:07:07.803Z,0.00
2022-12-14T01:08:07.778Z,0.00
2022-12-14T01:09:07.758Z,0.00
2022-12-14T01:10:07.747Z,0.00
2022-12-14T01:11:07.752Z,0.00
2022-12-14T01:12:07.729Z,0.00
2022-12-14T01:13:07.718Z,0.00
2022-12-14T01:14:07.697Z,0.00
2022-12-14T01:15:07.696Z,0.00
2022-12-14T01:16:07.773Z,0.00
2022-12-14T01:17:07.697Z,0.00
2022-12-14T01:18:07.703Z,0.00
2022-12-14T01:19:07.661Z,0.00
2022-12-14T01:20:07.679Z,0.00
2022-12-14T01:21:07.639Z,0.00
2022-12-14T01:22:07.640Z,0.00
2022-12-14T01:23:07.607Z,0.00
2022-12-14T01:24:07.606Z,0.00
2022-12-14T01:25:07.597Z,0.00
2022-12-14T01:26:07.601Z,0.00
2022-12-14T01:27:07.569Z,0.00
2022-12-14T01:28:07.579Z,0.00
2022-12-14T01:29:07.572Z,0.00
2022-12-14T01:30:07.547Z,0.00
2022-12-14T01:31:07.577Z,0.00
2022-12-14T01:32:07.519Z,0.00
2022-12-14T01:33:07.517Z,0.00
2022-12-14T01:34:07.528Z,0.00
2022-12-14T01:35:07.488Z,0.00
2022-12-14T01:36:07.509Z,0.00
2022-12-14T01:37:07.458Z,0.00
2022-12-14T01:38:07.458Z,0.00
2022-12-14T01:39:07.452Z,0.00
2022-12-14T01:40:07.431Z,0.00
2022-12-14T01:41:07.394Z,0.00
2022-12-14T01:42:07.414Z,0.00
2022-12-14T01:43:07.411Z,0.00
2022-12-14T01:44:07.389Z,0.00
2022-12-14T01:45:07.359Z,0.00
2022-12-14T01:46:07.396Z,0.00
2022-12-14T01:47:12.367Z,0.00
2022-12-14T01:48:08.348Z,0.00
2022-12-14T01:49:28.327Z,0.00
2022-12-14T01:50:07.309Z,0.00
2022-12-14T01:51:07.306Z,0.00
2022-12-14T01:52:07.295Z,0.00
2022-12-14T01:53:07.282Z,0.00
2022-12-14T01:54:07.263Z,0.00
2022-12-14T01:55:07.274Z,0.00
2022-12-14T01:56:07.266Z,0.00
2022-12-14T01:57:07.241Z,0.00
2022-12-14T01:58:07.213Z,0.00
2022-12-14T01:59:07.214Z,0.00
2022-12-14T02:00:08.143Z,0.00
2022-12-14T02:01:07.180Z,0.00
2022-12-14T02:02:07.367Z,0.00
2022-12-14T02:03:07.223Z,0.00
2022-12-14T02:04:07.155Z,0.00
2022-12-14T02:05:07.156Z,0.00
2022-12-14T02:06:07.130Z,0.00
2022-12-14T02:07:07.126Z,0.00
2022-12-14T02:08:07.122Z,0.00
2022-12-14T02:09:07.101Z,0.00
2022-12-14T02:10:07.092Z,0.00
2022-12-14T02:11:07.096Z,0.00
2022-12-14T02:12:07.073Z,0.00
2022-12-14T02:13:07.052Z,0.00
2022-12-14T02:14:07.059Z,0.00
2022-12-14T02:15:07.042Z,0.00
2022-12-14T02:16:07.112Z,0.00
2022-12-14T02:17:07.012Z,0.00
2022-12-14T02:18:07.008Z,0.00
2022-12-14T02:19:06.994Z,0.00
2022-12-14T02:20:06.991Z,0.00
2022-12-14T02:21:06.962Z,0.00
2022-12-14T02:22:06.950Z,0.00
2022-12-14T02:23:06.964Z,0.00
2022-12-14T02:24:06.951Z,0.00
2022-12-14T02:25:06.933Z,0.00
2022-12-14T02:26:06.898Z,0.00
2022-12-14T02:27:06.902Z,0.00
2022-12-14T02:28:06.881Z,0.00
2022-12-14T02:29:06.883Z,0.00
2022-12-14T02:30:06.883Z,0.00
2022-12-14T02:31:06.899Z,0.00
2022-12-14T02:32:06.850Z,0.00
2022-12-14T02:33:06.845Z,0.00
2022-12-14T02:34:07.651Z,0.00
2022-12-14T02:35:06.813Z,0.00
2022-12-14T02:36:06.803Z,0.00
2022-12-14T02:37:06.815Z,0.00
2022-12-14T02:38:06.769Z,0.00
2022-12-14T02:39:06.804Z,0.00
2022-12-14T02:40:06.752Z,0.00
2022-12-14T02:41:06.780Z,0.00
2022-12-14T02:42:06.738Z,0.00
2022-12-14T02:43:06.720Z,0.00
2022-12-14T02:44:06.718Z,0.00
2022-12-14T02:45:06.698Z,0.00
2022-12-14T02:46:06.711Z,0.00
2022-12-14T02:47:06.721Z,0.00
2022-12-14T02:48:06.657Z,0.00
2022-12-14T02:49:06.652Z,0.00
2022-12-14T02:50:06.652Z,0.00
2022-12-14T02:51:06.627Z,0.00
2022-12-14T02:52:06.616Z,0.00
2022-12-14T02:53:06.622Z,0.00
2022-12-14T02:54:06.601Z,0.00
2022-12-14T02:55:06.583Z,0.00
2022-12-14T02:56:06.581Z,0.00
2022-12-14T02:57:06.557Z,0.00
2022-12-14T02:58:06.561Z,0.00
2022-12-14T02:59:06.552Z,0.00
2022-12-14T03:00:06.532Z,0.00
2022-12-14T03:01:06.567Z,0.00
2022-12-14T03:02:06.583Z,0.00
2022-12-14T03:03:06.524Z,0.00
2022-12-14T03:04:06.470Z,0.00
2022-12-14T03:05:06.490Z,0.00
2022-12-14T03:06:06.456Z,0.00
2022-12-14T03:07:06.461Z,0.00
2022-12-14T03:08:06.452Z,0.00
2022-12-14T03:09:06.447Z,0.00
2022-12-14T03:10:06.416Z,0.00
2022-12-14T03:11:06.396Z,0.00
2022-12-14T03:12:06.414Z,0.00
2022-12-14T03:13:06.389Z,0.00
2022-12-14T03:14:06.388Z,0.00
2022-12-14T03:15:06.376Z,0.00
2022-12-14T03:16:06.426Z,0.00
2022-12-14T03:17:06.350Z,0.00
2022-12-14T03:18:06.325Z,0.00
2022-12-14T03:19:06.334Z,0.00
2022-12-14T03:20:06.304Z,0.00
2022-12-14T03:21:06.286Z,0.00
2022-12-14T03:22:06.276Z,0.00
2022-12-14T03:23:06.269Z,0.00
2022-12-14T03:24:06.259Z,0.00
2022-12-14T03:25:06.256Z,0.00
2022-12-14T03:26:06.255Z,0.00
2022-12-14T03:27:06.242Z,0.00
2022-12-14T03:28:06.205Z,0.00
2022-12-14T03:29:06.222Z,0.00
2022-12-14T03:30:06.205Z,0.00
2022-12-14T03:31:06.264Z,0.00
2022-12-14T03:32:06.166Z,0.00
2022-12-14T03:33:06.168Z,0.00
2022-12-14T03:34:06.144Z,0.00
2022-12-14T03:35:07.133Z,0.00
2022-12-14T03:36:06.138Z,0.00
2022-12-14T03:37:06.128Z,0.00
2022-12-14T03:38:06.120Z,0.00
2022-12-14T03:39:06.105Z,0.00
2022-12-14T03:40:06.107Z,0.00
2022-12-14T03:41:06.073Z,0.00
2022-12-14T03:42:06.108Z,0.00
2022-12-14T03:43:06.057Z,0.00
2022-12-14T03:44:06.048Z,0.00
2022-12-14T03:45:06.033Z,0.00
2022-12-14T03:46:06.072Z,0.00
2022-12-14T03:47:06.017Z,0.00
2022-12-14T03:48:06.007Z,0.00
2022-12-14T03:49:05.983Z,0.00
2022-12-14T03:50:05.974Z,0.00
2022-12-14T03:51:05.964Z,0.00
2022-12-14T03:52:05.959Z,0.00
2022-12-14T03:53:05.969Z,0.00
2022-12-14T03:54:05.938Z,0.00
2022-12-14T03:55:05.911Z,0.00
2022-12-14T03:56:05.926Z,0.00
2022-12-14T03:57:05.903Z,0.00
2022-12-14T03:58:05.916Z,0.00
2022-12-14T03:59:05.918Z,0.00
2022-12-14T04:00:05.871Z,0.00
2022-12-14T04:01:05.899Z,0.00
2022-12-14T04:02:05.987Z,0.00
2022-12-14T04:03:05.885Z,0.00
2022-12-14T04:04:05.834Z,0.00
2022-12-14T04:05:05.865Z,0.00
2022-12-14T04:06:05.801Z,0.00
2022-12-14T04:07:05.781Z,0.00
2022-12-14T04:08:05.771Z,0.00
2022-12-14T04:09:05.779Z,0.00
2022-12-14T04:10:05.740Z,0.00
2022-12-14T04:11:05.765Z,0.00
2022-12-14T04:12:05.723Z,0.00
2022-12-14T04:13:05.739Z,0.00
2022-12-14T04:14:05.753Z,0.00
2022-12-14T04:15:05.726Z,0.00
2022-12-14T04:16:05.750Z,0.00
2022-12-14T04:17:05.689Z,0.00
2022-12-14T04:18:05.652Z,0.00
2022-12-14T04:19:05.666Z,0.00
2022-12-14T04:20:05.652Z,0.00
2022-12-14T04:21:05.634Z,0.00
2022-12-14T04:22:05.609Z,0.00
2022-12-14T04:23:05.616Z,0.00
2022-12-14T04:24:05.604Z,0.00
2022-12-14T04:25:05.608Z,0.00
2022-12-14T04:26:05.587Z,0.00
2022-12-14T04:27:05.572Z,0.00
2022-12-14T04:28:05.549Z,0.00
2022-12-14T04:29:05.552Z,0.00
2022-12-14T04:30:05.545Z,0.00
2022-12-14T04:31:05.547Z,0.00
2022-12-14T04:32:05.750Z,0.00
2022-12-14T04:33:05.502Z,0.00
2022-12-14T04:34:05.492Z,0.00
2022-12-14T04:35:05.489Z,0.00
2022-12-14T04:36:05.449Z,0.00
2022-12-14T04:37:05.458Z,0.00
2022-12-14T04:38:05.443Z,0.00
2022-12-14T04:39:05.441Z,0.00
2022-12-14T04:40:05.448Z,0.00
2022-12-14T04:41:05.415Z,0.00
2022-12-14T04:42:05.432Z,0.00
2022-12-14T04:43:05.367Z,0.00
2022-12-14T04:44:05.368Z,0.00
2022-12-14T04:45:05.359Z,0.00
2022-12-14T04:46:05.509Z,0.00
2022-12-14T04:47:05.353Z,0.00
2022-12-14T04:48:05.349Z,0.00
2022-12-14T04:49:05.324Z,0.00
2022-12-14T04:50:05.308Z,0.00
2022-12-14T04:51:05.302Z,0.00
2022-12-14T04:52:05.842Z,0.00
2022-12-14T04:53:05.291Z,0.00
2022-12-14T04:54:05.256Z,0.00
2022-12-14T04:55:05.237Z,0.00
2022-12-14T04:56:05.245Z,0.00
2022-12-14T04:57:05.246Z,0.00
2022-12-14T04:58:05.231Z,0.00
2022-12-14T04:59:05.210Z,0.00
2022-12-14T05:00:05.187Z,0.00
2022-12-14T05:01:05.244Z,0.00
2022-12-14T05:02:05.398Z,0.00
2022-12-14T05:03:05.226Z,0.00
2022-12-14T05:04:08.271Z,0.00
2022-12-14T05:05:06.146Z,0.00
2022-12-14T05:06:05.155Z,0.00
2022-12-14T05:07:05.150Z,0.00
2022-12-14T05:08:05.105Z,0.00
2022-12-14T05:09:05.099Z,0.00
2022-12-14T05:10:05.099Z,0.00
2022-12-14T05:11:39.497Z,0.00
2022-12-14T05:12:06.068Z,0.00
2022-12-14T05:13:05.062Z,0.00
2022-12-14T05:14:05.044Z,0.00
2022-12-14T05:15:05.048Z,0.00
2022-12-14T05:16:05.038Z,0.00
2022-12-14T05:17:08.454Z,0.00
2022-12-14T05:18:04.987Z,0.00
2022-12-14T05:19:04.985Z,0.00
2022-12-14T05:20:04.982Z,0.00
2022-12-14T05:21:04.953Z,0.00
2022-12-14T05:22:04.972Z,0.00
2022-12-14T05:23:04.946Z,0.00
2022-12-14T05:24:04.924Z,0.00
2022-12-14T05:25:04.941Z,0.00
2022-12-14T05:26:04.918Z,0.00
2022-12-14T05:27:04.889Z,0.00
2022-12-14T05:28:04.879Z,0.00
2022-12-14T05:29:04.888Z,0.00
2022-12-14T05:30:04.890Z,0.00
2022-12-14T05:31:04.871Z,0.00
2022-12-14T05:32:04.896Z,0.00
2022-12-14T05:33:04.826Z,0.00
2022-12-14T05:34:04.820Z,0.00
2022-12-14T05:35:04.868Z,0.00
2022-12-14T05:36:04.825Z,0.00
2022-12-14T05:37:04.813Z,0.00
2022-12-14T05:38:04.772Z,0.00
2022-12-14T05:39:04.779Z,0.00
2022-12-14T05:40:04.774Z,0.00
2022-12-14T05:41:04.743Z,0.00
2022-12-14T05:42:04.730Z,0.00
2022-12-14T05:43:04.757Z,0.00
2022-12-14T05:44:04.704Z,0.00
2022-12-14T05:45:04.707Z,0.00
2022-12-14T05:46:04.748Z,0.00
2022-12-14T05:47:04.687Z,0.00
2022-12-14T05:48:04.661Z,0.00
2022-12-14T05:49:04.654Z,0.00
2022-12-14T05:50:04.655Z,0.00
2022-12-14T05:51:04.638Z,0.00
2022-12-14T05:52:04.625Z,0.00
2022-12-14T05:53:04.601Z,0.00
2022-12-14T05:54:04.591Z,0.00
2022-12-14T05:55:05.030Z,0.00
2022-12-14T05:56:04.585Z,0.00
2022-12-14T05:57:04.564Z,0.00
2022-12-14T05:58:04.595Z,0.00
2022-12-14T05:59:04.539Z,0.00
2022-12-14T06:00:04.543Z,0.00
2022-12-14T06:01:04.522Z,0.00
2022-12-14T06:02:04.571Z,0.00
2022-12-14T06:03:04.535Z,0.00
2022-12-14T06:04:04.586Z,0.00
2022-12-14T06:05:04.461Z,0.00
2022-12-14T06:06:04.474Z,0.00
2022-12-14T06:07:04.473Z,0.00
2022-12-14T06:08:04.440Z,0.00
2022-12-14T06:09:04.418Z,0.00
2022-12-14T06:10:11.426Z,0.00
2022-12-14T06:11:04.420Z,0.00
2022-12-14T06:12:04.395Z,0.00
2022-12-14T06:13:04.377Z,0.00
2022-12-14T06:14:04.387Z,0.00
2022-12-14T06:15:04.359Z,0.00
2022-12-14T06:16:04.391Z,0.00
2022-12-14T06:17:04.324Z,0.00
2022-12-14T06:18:04.351Z,0.00
2022-12-14T06:19:04.305Z,0.00
2022-12-14T06:20:04.316Z,0.00
2022-12-14T06:21:04.298Z,0.00
2022-12-14T06:22:04.285Z,0.00
2022-12-14T06:23:04.255Z,0.00
2022-12-14T06:24:04.283Z,0.00
2022-12-14T06:25:04.381Z,0.00
2022-12-14T06:26:04.257Z,0.00
2022-12-14T06:27:04.245Z,0.00
2022-12-14T06:28:04.213Z,0.00
2022-12-14T06:29:04.218Z,0.00
2022-12-14T06:30:04.201Z,0.00
2022-12-14T06:31:04.222Z,0.00
2022-12-14T06:32:04.176Z,0.00
2022-12-14T06:33:04.166Z,0.00
2022-12-14T06:34:04.166Z,0.00
2022-12-14T06:35:04.157Z,0.00
2022-12-14T06:36:04.122Z,0.00
2022-12-14T06:37:04.114Z,0.00
2022-12-14T06:38:04.111Z,0.00
2022-12-14T06:39:04.100Z,0.00
2022-12-14T06:40:04.074Z,0.00
2022-12-14T06:41:04.086Z,0.00
2022-12-14T06:42:04.075Z,0.00
2022-12-14T06:43:04.055Z,0.00
2022-12-14T06:44:04.054Z,0.00
2022-12-14T06:45:04.020Z,0.00
2022-12-14T06:46:04.060Z,0.00
2022-12-14T06:47:04.007Z,0.00
2022-12-14T06:48:03.999Z,0.00
2022-12-14T06:49:03.986Z,0.00
2022-12-14T06:50:03.985Z,0.00
2022-12-14T06:51:03.951Z,0.00
2022-12-14T06:52:03.955Z,0.00
2022-12-14T06:53:03.955Z,0.00
2022-12-14T06:54:03.922Z,0.00
2022-12-14T06:55:03.928Z,0.00
2022-12-14T06:56:03.915Z,0.00
2022-12-14T06:57:03.891Z,0.00
2022-12-14T06:58:03.895Z,0.00
2022-12-14T06:59:03.872Z,0.00
2022-12-14T07:00:03.873Z,0.00
2022-12-14T07:01:03.966Z,0.00
2022-12-14T07:02:03.927Z,0.00
2022-12-14T07:03:03.959Z,0.00
2022-12-14T07:04:03.837Z,0.00
2022-12-14T07:05:03.843Z,0.00
2022-12-14T07:06:03.805Z,0.00
2022-12-14T07:07:03.780Z,0.00
2022-12-14T07:08:03.782Z,0.00
2022-12-14T07:09:03.764Z,0.00
2022-12-14T07:10:03.803Z,0.00
2022-12-14T07:11:03.748Z,0.00
2022-12-14T07:12:03.741Z,0.00
2022-12-14T07:13:03.742Z,0.00
2022-12-14T07:14:03.712Z,0.00
2022-12-14T07:15:03.704Z,0.00
2022-12-14T07:16:03.729Z,0.00
2022-12-14T07:17:03.680Z,0.00
2022-12-14T07:18:03.683Z,0.00
2022-12-14T07:19:03.659Z,0.00
2022-12-14T07:20:03.654Z,0.00
2022-12-14T07:21:03.617Z,0.00
2022-12-14T07:22:03.632Z,0.00
2022-12-14T07:23:03.688Z,0.00
2022-12-14T07:24:03.589Z,0.00
2022-12-14T07:25:03.601Z,0.00
2022-12-14T07:26:03.575Z,0.00
2022-12-14T07:27:03.547Z,0.00
2022-12-14T07:28:03.611Z,0.00
2022-12-14T07:29:03.668Z,0.00
2022-12-14T07:30:03.530Z,0.00
2022-12-14T07:31:03.625Z,0.00
2022-12-14T07:32:03.505Z,0.00
2022-12-14T07:33:03.507Z,0.00
2022-12-14T07:34:03.476Z,0.00
2022-12-14T07:35:03.474Z,0.00
2022-12-14T07:36:03.702Z,0.00
2022-12-14T07:37:03.446Z,0.00
2022-12-14T07:38:03.459Z,0.00
2022-12-14T07:39:03.450Z,0.00
2022-12-14T07:40:03.415Z,0.00
2022-12-14T07:41:03.603Z,0.00
2022-12-14T07:42:03.438Z,0.00
2022-12-14T07:43:03.408Z,0.00
2022-12-14T07:44:03.375Z,0.00
2022-12-14T07:45:03.359Z,0.00
2022-12-14T07:46:03.897Z,0.00
2022-12-14T07:47:03.329Z,0.00
2022-12-14T07:48:03.327Z,0.00
2022-12-14T07:49:03.325Z,0.00
2022-12-14T07:50:03.319Z,0.00
2022-12-14T07:51:03.607Z,0.00
2022-12-14T07:52:03.323Z,0.00
2022-12-14T07:53:03.264Z,0.00
2022-12-14T07:54:03.262Z,0.00
2022-12-14T07:55:03.307Z,0.00
2022-12-14T07:56:03.533Z,0.00
2022-12-14T07:57:03.234Z,0.00
2022-12-14T07:58:03.214Z,0.00
2022-12-14T07:59:03.235Z,0.00
2022-12-14T08:00:03.206Z,0.00
2022-12-14T08:01:03.500Z,0.00
2022-12-14T08:02:03.332Z,0.00
2022-12-14T08:03:03.498Z,0.00
2022-12-14T08:04:03.142Z,0.00
2022-12-14T08:05:06.603Z,0.00
2022-12-14T08:06:04.146Z,0.00
2022-12-14T08:07:03.128Z,0.00
2022-12-14T08:08:03.116Z,0.00
2022-12-14T08:09:03.121Z,0.00
2022-12-14T08:10:03.081Z,0.00
2022-12-14T08:11:03.124Z,0.00
2022-12-14T08:12:03.110Z,0.00
2022-12-14T08:13:03.035Z,0.00
2022-12-14T08:14:03.045Z,0.00
2022-12-14T08:15:03.081Z,0.00
2022-12-14T08:16:03.086Z,0.00
2022-12-14T08:17:03.013Z,0.00
2022-12-14T08:18:03.001Z,0.00
2022-12-14T08:19:02.972Z,0.00
2022-12-14T08:20:02.986Z,0.00
2022-12-14T08:21:02.959Z,0.00
2022-12-14T08:22:02.990Z,0.00
2022-12-14T08:23:02.974Z,0.00
2022-12-14T08:24:02.920Z,0.00
2022-12-14T08:25:02.934Z,0.00
2022-12-14T08:26:02.923Z,0.00
2022-12-14T08:27:02.895Z,0.00
2022-12-14T08:28:02.898Z,0.00
2022-12-14T08:29:02.872Z,0.00
2022-12-14T08:30:02.877Z,0.00
2022-12-14T08:31:02.871Z,0.00
2022-12-14T08:32:02.871Z,0.00
2022-12-14T08:33:02.830Z,0.00
2022-12-14T08:34:02.836Z,0.00
2022-12-14T08:35:02.854Z,0.00
2022-12-14T08:36:02.815Z,0.00
2022-12-14T08:37:02.796Z,0.00
2022-12-14T08:38:02.782Z,0.00
2022-12-14T08:39:02.759Z,0.00
2022-12-14T08:40:02.762Z,0.00
2022-12-14T08:41:02.733Z,0.00
2022-12-14T08:42:02.767Z,0.00
2022-12-14T08:43:02.729Z,0.00
2022-12-14T08:44:02.721Z,0.00
2022-12-14T08:45:02.690Z,0.00
2022-12-14T08:46:02.692Z,0.00
2022-12-14T08:47:02.737Z,0.00
2022-12-14T08:48:02.688Z,0.00
2022-12-14T08:49:02.646Z,0.00
2022-12-14T08:50:02.651Z,0.00
2022-12-14T08:51:02.643Z,0.00
2022-12-14T08:52:02.623Z,0.00
2022-12-14T08:53:02.622Z,0.00
2022-12-14T08:54:02.622Z,0.00
2022-12-14T08:55:02.602Z,0.00
2022-12-14T08:56:02.582Z,0.00
2022-12-14T08:57:02.558Z,0.00
2022-12-14T08:58:02.609Z,0.00
2022-12-14T08:59:02.546Z,0.00
2022-12-14T09:00:03.092Z,0.00
2022-12-14T09:01:02.589Z,0.00
2022-12-14T09:02:02.607Z,0.00
2022-12-14T09:03:02.683Z,0.00
2022-12-14T09:04:02.480Z,0.00
2022-12-14T09:05:02.474Z,0.00
2022-12-14T09:06:02.478Z,0.00
2022-12-14T09:07:02.532Z,0.00
2022-12-14T09:08:02.433Z,0.00
2022-12-14T09:09:02.425Z,0.00
2022-12-14T09:10:02.460Z,0.00
2022-12-14T09:11:02.430Z,0.00
2022-12-14T09:12:02.392Z,0.00
2022-12-14T09:13:02.407Z,0.00
2022-12-14T09:14:02.369Z,0.00
2022-12-14T09:15:02.379Z,0.00
2022-12-14T09:16:02.376Z,0.00
2022-12-14T09:17:02.344Z,0.00
2022-12-14T09:18:02.385Z,0.00
2022-12-14T09:19:02.325Z,0.00
2022-12-14T09:20:02.448Z,0.00
2022-12-14T09:21:02.345Z,0.00
2022-12-14T09:22:02.401Z,0.00
2022-12-14T09:23:02.283Z,0.00
2022-12-14T09:24:02.319Z,0.00
2022-12-14T09:25:02.271Z,0.00
2022-12-14T09:26:02.319Z,0.00
2022-12-14T09:27:02.283Z,0.00
2022-12-14T09:28:02.237Z,0.00
2022-12-14T09:29:02.318Z,0.00
2022-12-14T09:30:02.217Z,0.00
2022-12-14T09:31:02.210Z,0.00
2022-12-14T09:32:02.256Z,0.00
2022-12-14T09:33:02.188Z,0.00
2022-12-14T09:34:02.173Z,0.00
2022-12-14T09:35:02.159Z,0.00
2022-12-14T09:36:02.146Z,0.00
2022-12-14T09:37:02.140Z,0.00
2022-12-14T09:38:02.127Z,0.00
2022-12-14T09:39:02.223Z,0.00
2022-12-14T09:40:02.099Z,0.00
2022-12-14T09:41:05.893Z,0.00
2022-12-14T09:42:03.065Z,0.00
2022-12-14T09:43:02.095Z,0.00
2022-12-14T09:44:02.096Z,0.00
2022-12-14T09:45:02.059Z,0.00
2022-12-14T09:46:02.050Z,0.00
2022-12-14T09:47:02.046Z,0.00
2022-12-14T09:48:01.990Z,0.00
2022-12-14T09:49:02.010Z,0.00
2022-12-14T09:50:02.009Z,0.00
2022-12-14T09:51:02.042Z,0.00
2022-12-14T09:52:01.967Z,0.00
2022-12-14T09:53:02.002Z,0.00
2022-12-14T09:54:02.738Z,0.00
2022-12-14T09:55:01.928Z,0.00
2022-12-14T09:56:01.919Z,0.00
2022-12-14T09:57:01.962Z,0.00
2022-12-14T09:58:01.916Z,0.00
2022-12-14T09:59:01.918Z,0.00
2022-12-14T10:00:01.860Z,0.00
2022-12-14T10:01:01.930Z,0.00
2022-12-14T10:03:06.809Z,0.00
2022-12-14T10:04:01.988Z,0.00
2022-12-14T10:05:01.843Z,0.00
2022-12-14T10:06:01.799Z,0.00
2022-12-14T10:07:01.802Z,0.00
2022-12-14T10:08:01.798Z,0.00
2022-12-14T10:09:01.819Z,0.00
2022-12-14T10:10:01.908Z,0.00
2022-12-14T10:11:01.843Z,0.00
2022-12-14T10:12:01.730Z,0.00
2022-12-14T10:13:01.759Z,0.00
2022-12-14T10:14:01.723Z,0.00
2022-12-14T10:15:01.743Z,0.00
2022-12-14T10:16:01.765Z,0.00
2022-12-14T10:17:01.731Z,0.00
2022-12-14T10:18:01.681Z,0.00
2022-12-14T10:19:02.867Z,5.62
2022-12-14T10:20:01.669Z,5.62
2022-12-14T10:21:01.697Z,5.62
2022-12-14T10:22:01.627Z,5.62
2022-12-14T10:23:01.641Z,5.62
2022-12-14T10:24:01.610Z,5.62
2022-12-14T10:25:01.610Z,5.62
2022-12-14T10:26:01.604Z,5.62
2022-12-14T10:27:01.641Z,5.62
2022-12-14T10:28:10.980Z,5.62
2022-12-14T10:29:02.556Z,5.62
2022-12-14T10:30:01.705Z,5.62
2022-12-14T10:31:01.657Z,5.62
2022-12-14T10:32:01.688Z,5.62
2022-12-14T10:33:01.600Z,5.62
2022-12-14T10:34:01.513Z,5.62
2022-12-14T10:35:01.487Z,5.62
2022-12-14T10:36:01.474Z,5.62
2022-12-14T10:37:01.470Z,5.62
2022-12-14T10:38:01.468Z,5.62
2022-12-14T10:39:01.457Z,5.62
2022-12-14T10:40:05.903Z,5.62
2022-12-14T10:41:02.465Z,0.00
2022-12-14T10:42:01.436Z,5.62
2022-12-14T10:43:01.513Z,5.62
2022-12-14T10:44:01.381Z,5.62
2022-12-14T10:45:31.740Z,5.62
2022-12-14T10:46:02.423Z,5.62
2022-12-14T10:47:01.366Z,5.62
2022-12-14T10:48:01.355Z,5.62
2022-12-14T10:49:01.357Z,5.62
2022-12-14T10:50:01.314Z,5.62
2022-12-14T10:51:01.350Z,5.62
2022-12-14T10:52:01.304Z,5.62
2022-12-14T10:53:01.824Z,5.62
2022-12-14T10:54:01.503Z,5.62
2022-12-14T10:55:01.743Z,5.62
2022-12-14T10:56:01.494Z,5.62
2022-12-14T10:57:01.818Z,5.62
2022-12-14T10:58:01.650Z,5.62
2022-12-14T10:59:01.545Z,5.62
2022-12-14T11:00:10.353Z,5.62
2022-12-14T11:01:02.268Z,5.62
2022-12-14T11:02:01.405Z,5.62
2022-12-14T11:03:01.337Z,5.62
2022-12-14T11:04:01.164Z,5.62
2022-12-14T11:05:01.192Z,5.62
2022-12-14T11:06:01.158Z,5.62
2022-12-14T11:07:01.220Z,5.62
2022-12-14T11:08:01.116Z,5.62
2022-12-14T11:09:01.113Z,5.62
2022-12-14T11:10:01.116Z,5.62
2022-12-14T11:11:01.109Z,5.62
2022-12-14T11:12:01.204Z,5.62
2022-12-14T11:13:01.098Z,5.62
2022-12-14T11:14:01.074Z,5.62
2022-12-14T11:15:01.056Z,5.62
2022-12-14T11:16:01.098Z,5.62
2022-12-14T11:17:01.090Z,5.62
2022-12-14T11:18:01.205Z,5.62
2022-12-14T11:19:01.046Z,5.62
2022-12-14T11:20:01.028Z,5.62
2022-12-14T11:21:01.221Z,5.62
2022-12-14T11:22:00.974Z,5.62
2022-12-14T11:23:00.961Z,5.62
2022-12-14T11:24:00.942Z,5.62
2022-12-14T11:25:00.931Z,5.62
2022-12-14T11:26:00.951Z,5.62
2022-12-14T11:27:00.928Z,5.62
2022-12-14T11:28:01.081Z,5.62
2022-12-14T11:29:00.912Z,11.25
2022-12-14T11:30:00.887Z,11.25
2022-12-14T11:31:00.936Z,11.25
2022-12-14T11:32:00.908Z,11.25
2022-12-14T11:33:00.854Z,5.62
2022-12-14T11:34:00.844Z,5.62
2022-12-14T11:35:00.837Z,11.25
2022-12-14T11:36:00.823Z,11.25
2022-12-14T11:37:00.811Z,16.88
2022-12-14T11:38:00.794Z,16.88
2022-12-14T11:39:00.789Z,22.50
2022-12-14T11:40:00.770Z,22.50
2022-12-14T11:41:03.436Z,28.12
2022-12-14T11:42:02.745Z,22.50
2022-12-14T11:43:00.784Z,22.50
2022-12-14T11:44:00.732Z,22.50
2022-12-14T11:45:00.827Z,22.50
2022-12-14T11:46:00.722Z,16.88
2022-12-14T11:47:00.697Z,16.88
2022-12-14T11:48:00.702Z,16.88
2022-12-14T11:49:00.683Z,16.88
2022-12-14T11:50:00.696Z,22.50
2022-12-14T11:51:00.662Z,22.50
2022-12-14T11:52:00.663Z,22.50
2022-12-14T11:53:00.684Z,22.50
2022-12-14T11:54:00.623Z,22.50
2022-12-14T11:55:00.628Z,22.50
2022-12-14T11:56:00.827Z,16.88
2022-12-14T11:57:00.578Z,22.50
2022-12-14T11:58:00.740Z,16.88
2022-12-14T11:59:00.582Z,16.88
2022-12-14T12:00:00.561Z,11.25
2022-12-14T12:01:00.541Z,11.25
2022-12-14T12:02:00.568Z,11.25
2022-12-14T12:03:00.636Z,11.25
2022-12-14T12:04:00.728Z,11.25
2022-12-14T12:05:00.489Z,11.25
2022-12-14T12:06:00.489Z,11.25
2022-12-14T12:07:04.507Z,11.25
2022-12-14T12:08:01.184Z,11.25
2022-12-14T12:09:00.457Z,16.88
2022-12-14T12:10:00.440Z,16.88
2022-12-14T12:11:03.454Z,22.50
2022-12-14T12:12:00.429Z,33.75
2022-12-14T12:13:00.426Z,50.62
2022-12-14T12:14:00.401Z,56.25
2022-12-14T12:15:00.402Z,56.25
2022-12-14T12:16:00.404Z,157.50
2022-12-14T12:17:00.370Z,292.50
2022-12-14T12:18:00.355Z,247.50
2022-12-14T12:19:00.350Z,112.50
2022-12-14T12:20:00.351Z,61.88
2022-12-14T12:21:00.323Z,101.25
2022-12-14T12:22:00.295Z,106.88
2022-12-14T12:23:00.286Z,78.75
2022-12-14T12:24:00.285Z,78.75
2022-12-14T12:26:01.280Z,78.75
2022-12-14T12:27:00.244Z,56.25
2022-12-14T12:28:00.248Z,28.12
2022-12-14T12:29:00.259Z,39.38
2022-12-14T12:30:00.203Z,73.12
2022-12-14T12:31:00.343Z,84.38
2022-12-14T12:32:00.208Z,73.12
2022-12-14T12:33:00.186Z,129.38
2022-12-14T12:34:00.191Z,123.75
2022-12-14T12:35:10.956Z,56.25
2022-12-14T12:36:01.162Z,56.25
2022-12-14T12:37:25.140Z,50.62
2022-12-14T12:38:01.156Z,61.88
2022-12-14T12:39:00.114Z,56.25
2022-12-14T12:40:00.145Z,45.00
2022-12-14T12:41:00.148Z,45.00
2022-12-14T12:42:04.965Z,50.62
2022-12-14T12:43:01.085Z,50.62
2022-12-14T12:44:00.100Z,56.25
2022-12-14T12:45:00.082Z,163.12
2022-12-14T12:46:00.106Z,202.50
2022-12-14T12:47:23.510Z,230.62
2022-12-14T12:48:01.093Z,281.25
2022-12-14T12:49:00.005Z,174.38
2022-12-14T12:49:59.991Z,101.25
2022-12-14T12:50:59.997Z,67.50
2022-12-14T12:52:00.018Z,50.62
2022-12-14T12:53:03.540Z,84.38
2022-12-14T12:54:00.008Z,95.62
2022-12-14T12:54:59.946Z,84.38
2022-12-14T12:56:00.054Z,50.62
2022-12-14T12:56:59.943Z,28.12
2022-12-14T12:57:59.924Z,28.12
2022-12-14T12:58:59.902Z,16.88
2022-12-14T12:59:59.889Z,11.25
2022-12-14T13:00:59.883Z,11.25
2022-12-14T13:01:59.980Z,5.62
2022-12-14T13:02:59.895Z,5.62
2022-12-14T13:03:59.846Z,5.62
2022-12-14T13:05:16.290Z,5.62
2022-12-14T13:06:00.824Z,0.00
2022-12-14T13:06:59.839Z,0.00
2022-12-14T13:07:59.804Z,0.00
2022-12-14T13:08:59.783Z,0.00
2022-12-14T13:10:05.338Z,0.00
2022-12-14T13:12:00.827Z,0.00
2022-12-14T13:12:59.740Z,0.00
2022-12-14T13:13:59.747Z,0.00
2022-12-14T13:14:59.730Z,0.00
2022-12-14T13:15:59.763Z,0.00
2022-12-14T13:16:59.709Z,0.00
2022-12-14T13:17:59.696Z,0.00